Hlavní strana
METAR-TAF:

METAR-TAF

Letiště :

Florence, Jižní Karolína, Spojené státy americké

zeměpisná šířka: 34-11-16N, zeměpisná délka: 079-43-51W, výška: 45 m

Aktuální stav počasí

Zpráva byla vytvořena před 37 minutami, v 17:53 UTC
Severozápadní vítr 10 kt s nárazy do 20 kt
Teplota 12°C
Vlhkost vzduchu 30%
Tlak 1017 hPa
Viditelnost: 16.1 km
Jasno

METAR: KFLO 271753Z 31010G20KT 10SM CLR 12/M05 A3004 RMK AO2 SLP170 T01171050 10117 20050 58003

Čas: 13:30 (18:30 UTC)

Předpověď počasí

Zpráva byla vytvořena před 1 hodinou a 7 minutami, v 17:23 UTC
Předpověď platná od 27 v 18 UTC do 28 v 18 UTC
Západoseverozápadní vítr 13 kt s nárazy do 20 kt
Viditelnost: 10 km
Jasno
Od 27 v 2200 UTC
Západní vítr 9 kt
Viditelnost: 10 km
Jasno
Od 28 v 1600 UTC
Jihozápadní vítr 10 kt s nárazy do 17 kt
Viditelnost: 10 km
Skoro jasno ve výšce 12000 ft

TAF: KFLO 271723Z 2718/2818 29013G20KT P6SM SKC FM272200 28009KT P6SM SKC FM281600 23010G17KT P6SM FEW120

Stav a předpovědi počasí z více než 4 000 letišť (zprávy METAR a TAF).

Červené a žluté tečky na mapě představují dostupné meteorologické stanice.

Když kurzor umístíte na tečku, zobrazí se název stanice.

Pak kliknutím zobrazíte stav a předpověď počasí.

Chcete-li změnit mapu, kliknutím na zelené tlačítko se znaménkem +mapu přiblížíte, kliknutím na zelené tlačítko se znaménkem – mapu oddálíte a kliknutím na zelené šipky přejdete na sousední mapy.


METAR-TAF: